sensor_id;sensor_type;location;lat;lon;timestamp;P1;durP1;ratioP1;P2;durP2;ratioP2
9034;SDS011;4552;43.422;24.592;2022-12-18T00:01:19;10.93;;;6.47;;
9034;SDS011;4552;43.422;24.592;2022-12-18T00:03:47;10.00;;;6.00;;
9034;SDS011;4552;43.422;24.592;2022-12-18T00:06:15;9.77;;;6.40;;
9034;SDS011;4552;43.422;24.592;2022-12-18T00:08:43;9.57;;;5.43;;
9034;SDS011;4552;43.422;24.592;2022-12-18T00:11:14;11.47;;;6.53;;
9034;SDS011;4552;43.422;24.592;2022-12-18T00:13:42;9.13;;;6.20;;
9034;SDS011;4552;43.422;24.592;2022-12-18T00:16:11;10.33;;;5.70;;
9034;SDS011;4552;43.422;24.592;2022-12-18T00:18:40;7.90;;;6.10;;
9034;SDS011;4552;43.422;24.592;2022-12-18T00:21:09;9.43;;;5.70;;
9034;SDS011;4552;43.422;24.592;2022-12-18T00:23:38;12.47;;;5.63;;
9034;SDS011;4552;43.422;24.592;2022-12-18T00:26:07;12.50;;;6.27;;
9034;SDS011;4552;43.422;24.592;2022-12-18T00:28:42;8.50;;;5.77;;
9034;SDS011;4552;43.422;24.592;2022-12-18T00:31:11;11.67;;;6.43;;
9034;SDS011;4552;43.422;24.592;2022-12-18T00:33:39;10.30;;;5.40;;
9034;SDS011;4552;43.422;24.592;2022-12-18T00:36:07;10.70;;;6.33;;
9034;SDS011;4552;43.422;24.592;2022-12-18T00:38:36;11.00;;;6.33;;
9034;SDS011;4552;43.422;24.592;2022-12-18T00:41:04;11.37;;;6.20;;
9034;SDS011;4552;43.422;24.592;2022-12-18T00:43:32;11.80;;;6.10;;
9034;SDS011;4552;43.422;24.592;2022-12-18T00:46:11;10.00;;;6.17;;
9034;SDS011;4552;43.422;24.592;2022-12-18T00:48:38;9.63;;;5.23;;
9034;SDS011;4552;43.422;24.592;2022-12-18T00:51:05;7.53;;;4.73;;
9034;SDS011;4552;43.422;24.592;2022-12-18T00:53:33;11.43;;;6.50;;
9034;SDS011;4552;43.422;24.592;2022-12-18T00:56:03;10.47;;;6.03;;
9034;SDS011;4552;43.422;24.592;2022-12-18T00:58:31;10.77;;;6.03;;
9034;SDS011;4552;43.422;24.592;2022-12-18T01:01:04;6.87;;;4.50;;
9034;SDS011;4552;43.422;24.592;2022-12-18T01:03:32;11.43;;;6.67;;
9034;SDS011;4552;43.422;24.592;2022-12-18T01:06:04;10.53;;;6.00;;
9034;SDS011;4552;43.422;24.592;2022-12-18T01:08:32;15.23;;;6.10;;
9034;SDS011;4552;43.422;24.592;2022-12-18T01:10:59;9.87;;;5.77;;
9034;SDS011;4552;43.422;24.592;2022-12-18T01:13:27;9.50;;;6.30;;
9034;SDS011;4552;43.422;24.592;2022-12-18T01:15:54;9.03;;;6.10;;
9034;SDS011;4552;43.422;24.592;2022-12-18T01:18:24;11.20;;;6.70;;
9034;SDS011;4552;43.422;24.592;2022-12-18T01:20:50;8.97;;;6.13;;
9034;SDS011;4552;43.422;24.592;2022-12-18T01:23:17;8.73;;;6.00;;
9034;SDS011;4552;43.422;24.592;2022-12-18T01:25:45;8.20;;;5.77;;
9034;SDS011;4552;43.422;24.592;2022-12-18T01:28:12;9.40;;;6.70;;
9034;SDS011;4552;43.422;24.592;2022-12-18T01:30:41;8.93;;;5.37;;
9034;SDS011;4552;43.422;24.592;2022-12-18T01:33:08;8.33;;;5.73;;
9034;SDS011;4552;43.422;24.592;2022-12-18T01:35:41;9.07;;;5.77;;
9034;SDS011;4552;43.422;24.592;2022-12-18T01:38:08;9.27;;;5.80;;
9034;SDS011;4552;43.422;24.592;2022-12-18T01:40:36;8.20;;;5.23;;
9034;SDS011;4552;43.422;24.592;2022-12-18T01:43:04;8.27;;;5.57;;
9034;SDS011;4552;43.422;24.592;2022-12-18T01:45:31;11.00;;;6.37;;
9034;SDS011;4552;43.422;24.592;2022-12-18T01:47:59;8.73;;;5.63;;
9034;SDS011;4552;43.422;24.592;2022-12-18T01:50:29;9.87;;;5.63;;
9034;SDS011;4552;43.422;24.592;2022-12-18T01:53:02;9.00;;;6.13;;
9034;SDS011;4552;43.422;24.592;2022-12-18T01:55:37;9.87;;;5.60;;
9034;SDS011;4552;43.422;24.592;2022-12-18T01:58:06;9.03;;;5.63;;
9034;SDS011;4552;43.422;24.592;2022-12-18T02:00:33;9.57;;;5.90;;
9034;SDS011;4552;43.422;24.592;2022-12-18T02:03:01;8.83;;;5.80;;
9034;SDS011;4552;43.422;24.592;2022-12-18T02:05:39;9.90;;;6.03;;
9034;SDS011;4552;43.422;24.592;2022-12-18T02:08:12;9.57;;;5.07;;
9034;SDS011;4552;43.422;24.592;2022-12-18T02:10:48;8.27;;;5.40;;
9034;SDS011;4552;43.422;24.592;2022-12-18T02:13:25;10.67;;;6.00;;
9034;SDS011;4552;43.422;24.592;2022-12-18T02:15:58;9.60;;;5.83;;
9034;SDS011;4552;43.422;24.592;2022-12-18T02:18:35;10.27;;;5.87;;
9034;SDS011;4552;43.422;24.592;2022-12-18T02:21:07;10.17;;;6.30;;
9034;SDS011;4552;43.422;24.592;2022-12-18T02:23:44;11.53;;;5.67;;
9034;SDS011;4552;43.422;24.592;2022-12-18T02:26:23;9.03;;;5.67;;
9034;SDS011;4552;43.422;24.592;2022-12-18T02:28:56;11.03;;;5.83;;
9034;SDS011;4552;43.422;24.592;2022-12-18T02:31:28;9.60;;;6.07;;
9034;SDS011;4552;43.422;24.592;2022-12-18T02:34:00;12.40;;;5.87;;
9034;SDS011;4552;43.422;24.592;2022-12-18T02:36:31;9.13;;;6.50;;
9034;SDS011;4552;43.422;24.592;2022-12-18T02:38:59;10.20;;;6.40;;
9034;SDS011;4552;43.422;24.592;2022-12-18T02:41:29;8.53;;;5.90;;
9034;SDS011;4552;43.422;24.592;2022-12-18T02:43:59;11.97;;;6.50;;
9034;SDS011;4552;43.422;24.592;2022-12-18T02:46:29;9.30;;;6.00;;
9034;SDS011;4552;43.422;24.592;2022-12-18T02:49:02;8.53;;;5.43;;
9034;SDS011;4552;43.422;24.592;2022-12-18T02:51:39;10.47;;;6.40;;
9034;SDS011;4552;43.422;24.592;2022-12-18T02:54:18;10.87;;;6.70;;
9034;SDS011;4552;43.422;24.592;2022-12-18T02:56:55;10.57;;;6.20;;
9034;SDS011;4552;43.422;24.592;2022-12-18T02:59:32;11.83;;;6.87;;
9034;SDS011;4552;43.422;24.592;2022-12-18T03:02:09;11.73;;;6.47;;
9034;SDS011;4552;43.422;24.592;2022-12-18T03:04:45;8.63;;;6.43;;
9034;SDS011;4552;43.422;24.592;2022-12-18T03:07:19;9.90;;;6.70;;
9034;SDS011;4552;43.422;24.592;2022-12-18T03:09:50;9.27;;;6.50;;
9034;SDS011;4552;43.422;24.592;2022-12-18T03:12:22;9.17;;;5.97;;
9034;SDS011;4552;43.422;24.592;2022-12-18T03:14:56;11.40;;;6.47;;
9034;SDS011;4552;43.422;24.592;2022-12-18T03:17:30;11.13;;;6.80;;
9034;SDS011;4552;43.422;24.592;2022-12-18T03:20:01;10.73;;;6.60;;
9034;SDS011;4552;43.422;24.592;2022-12-18T03:22:32;12.77;;;7.33;;
9034;SDS011;4552;43.422;24.592;2022-12-18T03:25:02;15.00;;;7.67;;
9034;SDS011;4552;43.422;24.592;2022-12-18T03:27:33;14.10;;;7.60;;
9034;SDS011;4552;43.422;24.592;2022-12-18T03:30:04;13.83;;;7.90;;
9034;SDS011;4552;43.422;24.592;2022-12-18T03:32:38;15.73;;;7.93;;
9034;SDS011;4552;43.422;24.592;2022-12-18T03:35:10;15.77;;;8.93;;
9034;SDS011;4552;43.422;24.592;2022-12-18T03:37:39;14.07;;;8.47;;
9034;SDS011;4552;43.422;24.592;2022-12-18T03:40:06;16.13;;;9.03;;
9034;SDS011;4552;43.422;24.592;2022-12-18T03:42:38;17.10;;;7.67;;
9034;SDS011;4552;43.422;24.592;2022-12-18T03:45:13;14.53;;;9.07;;
9034;SDS011;4552;43.422;24.592;2022-12-18T03:47:53;16.23;;;8.50;;
9034;SDS011;4552;43.422;24.592;2022-12-18T03:50:28;18.87;;;9.63;;
9034;SDS011;4552;43.422;24.592;2022-12-18T03:53:05;17.93;;;9.07;;
9034;SDS011;4552;43.422;24.592;2022-12-18T03:55:44;16.37;;;8.77;;
9034;SDS011;4552;43.422;24.592;2022-12-18T03:58:15;14.87;;;7.40;;
9034;SDS011;4552;43.422;24.592;2022-12-18T04:00:46;11.70;;;7.07;;
9034;SDS011;4552;43.422;24.592;2022-12-18T04:03:17;15.70;;;8.10;;
9034;SDS011;4552;43.422;24.592;2022-12-18T04:05:45;13.67;;;8.37;;
9034;SDS011;4552;43.422;24.592;2022-12-18T04:08:14;17.27;;;8.40;;
9034;SDS011;4552;43.422;24.592;2022-12-18T04:10:41;16.70;;;9.00;;
9034;SDS011;4552;43.422;24.592;2022-12-18T04:13:08;17.47;;;8.80;;
9034;SDS011;4552;43.422;24.592;2022-12-18T04:15:37;17.53;;;9.57;;
9034;SDS011;4552;43.422;24.592;2022-12-18T04:18:06;13.27;;;7.93;;
9034;SDS011;4552;43.422;24.592;2022-12-18T04:20:34;16.63;;;9.07;;
9034;SDS011;4552;43.422;24.592;2022-12-18T04:23:01;13.70;;;8.60;;
9034;SDS011;4552;43.422;24.592;2022-12-18T04:25:28;17.67;;;8.77;;
9034;SDS011;4552;43.422;24.592;2022-12-18T04:27:55;18.30;;;8.80;;
9034;SDS011;4552;43.422;24.592;2022-12-18T04:30:22;18.93;;;9.70;;
9034;SDS011;4552;43.422;24.592;2022-12-18T04:32:52;12.37;;;8.50;;
9034;SDS011;4552;43.422;24.592;2022-12-18T04:35:20;17.93;;;9.93;;
9034;SDS011;4552;43.422;24.592;2022-12-18T04:37:47;16.20;;;9.43;;
9034;SDS011;4552;43.422;24.592;2022-12-18T04:40:15;17.17;;;9.37;;
9034;SDS011;4552;43.422;24.592;2022-12-18T04:42:42;16.80;;;9.67;;
9034;SDS011;4552;43.422;24.592;2022-12-18T04:45:09;16.47;;;9.40;;
9034;SDS011;4552;43.422;24.592;2022-12-18T04:47:36;18.93;;;10.20;;
9034;SDS011;4552;43.422;24.592;2022-12-18T04:50:06;20.57;;;9.90;;
9034;SDS011;4552;43.422;24.592;2022-12-18T04:52:34;15.93;;;8.67;;
9034;SDS011;4552;43.422;24.592;2022-12-18T04:55:02;19.63;;;9.60;;
9034;SDS011;4552;43.422;24.592;2022-12-18T04:57:29;17.13;;;9.77;;
9034;SDS011;4552;43.422;24.592;2022-12-18T04:59:56;15.30;;;9.30;;
9034;SDS011;4552;43.422;24.592;2022-12-18T05:02:23;14.67;;;9.43;;
9034;SDS011;4552;43.422;24.592;2022-12-18T05:04:50;15.33;;;9.10;;
9034;SDS011;4552;43.422;24.592;2022-12-18T05:07:19;18.90;;;9.60;;
9034;SDS011;4552;43.422;24.592;2022-12-18T05:09:46;19.17;;;9.17;;
9034;SDS011;4552;43.422;24.592;2022-12-18T05:12:13;20.83;;;9.23;;
9034;SDS011;4552;43.422;24.592;2022-12-18T05:14:41;18.33;;;9.73;;
9034;SDS011;4552;43.422;24.592;2022-12-18T05:17:08;20.57;;;9.73;;
9034;SDS011;4552;43.422;24.592;2022-12-18T05:19:35;18.23;;;9.07;;
9034;SDS011;4552;43.422;24.592;2022-12-18T05:22:02;14.43;;;8.93;;
9034;SDS011;4552;43.422;24.592;2022-12-18T05:24:30;17.17;;;9.10;;
9034;SDS011;4552;43.422;24.592;2022-12-18T05:26:57;15.73;;;10.17;;
9034;SDS011;4552;43.422;24.592;2022-12-18T05:29:24;18.10;;;9.37;;
9034;SDS011;4552;43.422;24.592;2022-12-18T05:31:51;17.93;;;10.53;;
9034;SDS011;4552;43.422;24.592;2022-12-18T05:34:20;17.17;;;9.87;;
9034;SDS011;4552;43.422;24.592;2022-12-18T05:36:47;15.90;;;8.67;;
9034;SDS011;4552;43.422;24.592;2022-12-18T05:39:14;19.27;;;8.83;;
9034;SDS011;4552;43.422;24.592;2022-12-18T05:41:42;16.30;;;9.70;;
9034;SDS011;4552;43.422;24.592;2022-12-18T05:44:11;14.13;;;8.70;;
9034;SDS011;4552;43.422;24.592;2022-12-18T05:46:38;13.90;;;8.43;;
9034;SDS011;4552;43.422;24.592;2022-12-18T05:49:05;17.67;;;9.60;;
9034;SDS011;4552;43.422;24.592;2022-12-18T05:51:32;14.93;;;9.40;;
9034;SDS011;4552;43.422;24.592;2022-12-18T05:53:59;18.40;;;9.00;;
9034;SDS011;4552;43.422;24.592;2022-12-18T05:56:26;18.57;;;9.90;;
9034;SDS011;4552;43.422;24.592;2022-12-18T05:58:54;13.63;;;7.60;;
9034;SDS011;4552;43.422;24.592;2022-12-18T06:01:24;16.77;;;9.13;;
9034;SDS011;4552;43.422;24.592;2022-12-18T06:03:53;18.57;;;9.43;;
9034;SDS011;4552;43.422;24.592;2022-12-18T06:06:22;15.37;;;8.77;;
9034;SDS011;4552;43.422;24.592;2022-12-18T06:08:50;15.03;;;8.73;;
9034;SDS011;4552;43.422;24.592;2022-12-18T06:11:18;15.47;;;8.97;;
9034;SDS011;4552;43.422;24.592;2022-12-18T06:13:49;18.77;;;9.37;;
9034;SDS011;4552;43.422;24.592;2022-12-18T06:16:23;14.47;;;8.30;;
9034;SDS011;4552;43.422;24.592;2022-12-18T06:18:52;19.23;;;9.17;;
9034;SDS011;4552;43.422;24.592;2022-12-18T06:21:19;15.23;;;9.00;;
9034;SDS011;4552;43.422;24.592;2022-12-18T06:23:46;16.43;;;9.10;;
9034;SDS011;4552;43.422;24.592;2022-12-18T06:26:14;15.17;;;8.20;;
9034;SDS011;4552;43.422;24.592;2022-12-18T06:28:44;15.90;;;8.83;;
9034;SDS011;4552;43.422;24.592;2022-12-18T06:31:12;16.17;;;9.13;;
9034;SDS011;4552;43.422;24.592;2022-12-18T06:33:41;15.83;;;8.93;;
9034;SDS011;4552;43.422;24.592;2022-12-18T06:36:09;12.83;;;8.10;;
9034;SDS011;4552;43.422;24.592;2022-12-18T06:38:41;15.97;;;8.23;;
9034;SDS011;4552;43.422;24.592;2022-12-18T06:41:10;16.83;;;8.50;;
9034;SDS011;4552;43.422;24.592;2022-12-18T06:43:38;14.50;;;8.57;;
9034;SDS011;4552;43.422;24.592;2022-12-18T06:46:06;14.33;;;8.07;;
9034;SDS011;4552;43.422;24.592;2022-12-18T06:48:33;15.90;;;8.17;;
9034;SDS011;4552;43.422;24.592;2022-12-18T06:51:03;14.47;;;8.93;;
9034;SDS011;4552;43.422;24.592;2022-12-18T06:53:30;14.47;;;8.97;;
9034;SDS011;4552;43.422;24.592;2022-12-18T06:56:02;13.00;;;7.70;;
9034;SDS011;4552;43.422;24.592;2022-12-18T06:58:30;11.23;;;7.57;;
9034;SDS011;4552;43.422;24.592;2022-12-18T07:00:59;17.60;;;8.70;;
9034;SDS011;4552;43.422;24.592;2022-12-18T07:03:27;18.13;;;8.43;;
9034;SDS011;4552;43.422;24.592;2022-12-18T07:05:54;14.20;;;8.60;;
9034;SDS011;4552;43.422;24.592;2022-12-18T07:08:25;17.33;;;9.10;;
9034;SDS011;4552;43.422;24.592;2022-12-18T07:10:52;15.87;;;8.33;;
9034;SDS011;4552;43.422;24.592;2022-12-18T07:13:19;15.90;;;8.70;;
9034;SDS011;4552;43.422;24.592;2022-12-18T07:15:48;16.60;;;8.77;;
9034;SDS011;4552;43.422;24.592;2022-12-18T07:18:16;14.73;;;8.20;;
9034;SDS011;4552;43.422;24.592;2022-12-18T07:20:43;15.43;;;8.80;;
9034;SDS011;4552;43.422;24.592;2022-12-18T07:23:10;18.27;;;10.27;;
9034;SDS011;4552;43.422;24.592;2022-12-18T07:25:41;16.93;;;8.77;;
9034;SDS011;4552;43.422;24.592;2022-12-18T07:28:09;17.57;;;10.00;;
9034;SDS011;4552;43.422;24.592;2022-12-18T07:30:37;14.97;;;8.53;;
9034;SDS011;4552;43.422;24.592;2022-12-18T07:33:04;16.93;;;8.83;;
9034;SDS011;4552;43.422;24.592;2022-12-18T07:35:33;17.43;;;9.00;;
9034;SDS011;4552;43.422;24.592;2022-12-18T07:38:03;13.93;;;8.13;;
9034;SDS011;4552;43.422;24.592;2022-12-18T07:40:31;15.03;;;8.47;;
9034;SDS011;4552;43.422;24.592;2022-12-18T07:43:02;13.70;;;7.50;;
9034;SDS011;4552;43.422;24.592;2022-12-18T07:45:29;13.67;;;7.87;;
9034;SDS011;4552;43.422;24.592;2022-12-18T07:47:56;14.77;;;8.57;;
9034;SDS011;4552;43.422;24.592;2022-12-18T07:50:25;13.57;;;7.80;;
9034;SDS011;4552;43.422;24.592;2022-12-18T07:52:54;14.37;;;8.57;;
9034;SDS011;4552;43.422;24.592;2022-12-18T07:55:21;11.63;;;7.57;;
9034;SDS011;4552;43.422;24.592;2022-12-18T07:57:48;16.87;;;8.40;;
9034;SDS011;4552;43.422;24.592;2022-12-18T08:00:17;14.33;;;8.20;;
9034;SDS011;4552;43.422;24.592;2022-12-18T08:02:45;12.10;;;7.40;;
9034;SDS011;4552;43.422;24.592;2022-12-18T08:05:12;14.65;;;9.07;;
9034;SDS011;4552;43.422;24.592;2022-12-18T08:07:40;12.07;;;7.37;;
9034;SDS011;4552;43.422;24.592;2022-12-18T08:10:08;12.10;;;7.40;;
9034;SDS011;4552;43.422;24.592;2022-12-18T08:12:37;14.20;;;7.80;;
9034;SDS011;4552;43.422;24.592;2022-12-18T08:15:05;14.63;;;8.20;;
9034;SDS011;4552;43.422;24.592;2022-12-18T08:17:40;13.70;;;8.33;;
9034;SDS011;4552;43.422;24.592;2022-12-18T08:20:08;14.17;;;7.90;;
9034;SDS011;4552;43.422;24.592;2022-12-18T08:22:36;13.63;;;8.27;;
9034;SDS011;4552;43.422;24.592;2022-12-18T08:25:08;13.00;;;7.70;;
9034;SDS011;4552;43.422;24.592;2022-12-18T08:27:37;14.70;;;8.47;;
9034;SDS011;4552;43.422;24.592;2022-12-18T08:30:04;12.23;;;7.57;;
9034;SDS011;4552;43.422;24.592;2022-12-18T08:32:32;13.27;;;8.17;;
9034;SDS011;4552;43.422;24.592;2022-12-18T08:35:02;15.07;;;7.97;;
9034;SDS011;4552;43.422;24.592;2022-12-18T08:37:33;13.30;;;7.60;;
9034;SDS011;4552;43.422;24.592;2022-12-18T08:40:00;13.57;;;8.30;;
9034;SDS011;4552;43.422;24.592;2022-12-18T08:42:30;16.47;;;8.27;;
9034;SDS011;4552;43.422;24.592;2022-12-18T08:45:18;13.27;;;7.83;;
9034;SDS011;4552;43.422;24.592;2022-12-18T08:47:45;13.77;;;8.60;;
9034;SDS011;4552;43.422;24.592;2022-12-18T08:50:16;14.20;;;8.07;;
9034;SDS011;4552;43.422;24.592;2022-12-18T08:52:43;12.43;;;8.27;;
9034;SDS011;4552;43.422;24.592;2022-12-18T08:55:11;13.77;;;8.17;;
9034;SDS011;4552;43.422;24.592;2022-12-18T08:57:38;14.50;;;7.77;;
9034;SDS011;4552;43.422;24.592;2022-12-18T09:00:06;13.83;;;7.00;;
9034;SDS011;4552;43.422;24.592;2022-12-18T09:02:34;12.90;;;7.87;;
9034;SDS011;4552;43.422;24.592;2022-12-18T09:05:01;13.13;;;7.20;;
9034;SDS011;4552;43.422;24.592;2022-12-18T09:07:32;14.33;;;7.60;;
9034;SDS011;4552;43.422;24.592;2022-12-18T09:09:59;13.20;;;7.40;;
9034;SDS011;4552;43.422;24.592;2022-12-18T09:12:26;11.83;;;7.80;;
9034;SDS011;4552;43.422;24.592;2022-12-18T09:14:55;11.00;;;7.80;;
9034;SDS011;4552;43.422;24.592;2022-12-18T09:17:23;13.87;;;6.23;;
9034;SDS011;4552;43.422;24.592;2022-12-18T09:19:51;13.77;;;7.73;;
9034;SDS011;4552;43.422;24.592;2022-12-18T09:22:20;12.50;;;7.43;;
9034;SDS011;4552;43.422;24.592;2022-12-18T09:24:49;14.43;;;7.80;;
9034;SDS011;4552;43.422;24.592;2022-12-18T09:27:16;12.03;;;7.37;;
9034;SDS011;4552;43.422;24.592;2022-12-18T09:29:43;13.40;;;7.60;;
9034;SDS011;4552;43.422;24.592;2022-12-18T09:32:11;14.93;;;7.27;;
9034;SDS011;4552;43.422;24.592;2022-12-18T09:34:38;12.07;;;7.37;;
9034;SDS011;4552;43.422;24.592;2022-12-18T09:37:06;14.93;;;8.23;;
9034;SDS011;4552;43.422;24.592;2022-12-18T09:39:35;12.97;;;7.07;;
9034;SDS011;4552;43.422;24.592;2022-12-18T09:42:09;14.70;;;7.47;;
9034;SDS011;4552;43.422;24.592;2022-12-18T09:44:48;14.87;;;7.67;;
9034;SDS011;4552;43.422;24.592;2022-12-18T09:47:21;11.57;;;6.80;;
9034;SDS011;4552;43.422;24.592;2022-12-18T09:49:53;13.60;;;8.03;;
9034;SDS011;4552;43.422;24.592;2022-12-18T09:52:26;12.83;;;6.87;;
9034;SDS011;4552;43.422;24.592;2022-12-18T09:54:58;10.90;;;6.40;;
9034;SDS011;4552;43.422;24.592;2022-12-18T09:57:31;13.00;;;7.07;;
9034;SDS011;4552;43.422;24.592;2022-12-18T10:00:04;11.90;;;6.60;;
9034;SDS011;4552;43.422;24.592;2022-12-18T10:02:43;12.10;;;7.17;;
9034;SDS011;4552;43.422;24.592;2022-12-18T10:05:12;13.50;;;6.93;;
9034;SDS011;4552;43.422;24.592;2022-12-18T10:07:48;12.77;;;6.90;;
9034;SDS011;4552;43.422;24.592;2022-12-18T10:10:31;14.87;;;7.90;;
9034;SDS011;4552;43.422;24.592;2022-12-18T10:13:11;11.97;;;7.67;;
9034;SDS011;4552;43.422;24.592;2022-12-18T10:15:50;14.93;;;7.80;;
9034;SDS011;4552;43.422;24.592;2022-12-18T10:18:33;12.70;;;7.23;;
